Terminal Aerodrome Forecast
Issued by NWS Topeka, KS

Home | Current Version | Previous Version | Text Only | Print | Product List | Glossary On
Versions: 1 2 3 4 5 6 7 8 9 10 11 12 13 14 15 16 17 18 19 20 21 22 23 24 25 26
000
FTUS43 KTOP 200500
TAFTOP
TAF
KTOP 200520Z 2006/2106 18010KT 6SM BR BKN250
     FM200800 20008KT 4SM BR FEW010 BKN250
     FM201300 24011KT P6SM SCT040
     FM202200 27008KT P6SM VCTS BKN040CB
     FM210200 32005KT P6SM BKN050=

USA.gov is the U.S. government's official web portal to all federal, state and local government web resources and services.